createdAt,value
2019-02-06T00:00:52.856Z,1022.62
2019-02-06T00:01:52.869Z,1022.6
2019-02-06T00:02:52.882Z,1022.6
2019-02-06T00:03:52.896Z,1022.63
2019-02-06T00:04:52.910Z,1022.59
2019-02-06T00:06:52.938Z,1022.61
2019-02-06T00:07:52.952Z,1022.63
2019-02-06T00:08:52.967Z,1022.61
2019-02-06T00:09:52.979Z,1022.66
2019-02-06T00:10:53.019Z,1022.63
2019-02-06T00:11:53.015Z,1022.69
2019-02-06T00:12:53.023Z,1022.7
2019-02-06T00:13:53.079Z,1022.71
2019-02-06T00:14:53.079Z,1022.74
2019-02-06T00:15:53.066Z,1022.72
2019-02-06T00:16:53.078Z,1022.74
2019-02-06T00:17:53.122Z,1022.71
2019-02-06T00:18:53.127Z,1022.71
2019-02-06T00:19:53.122Z,1022.72
2019-02-06T00:20:53.141Z,1022.75
2019-02-06T00:22:53.172Z,1022.74
2019-02-06T00:23:53.180Z,1022.77
2019-02-06T00:24:53.191Z,1022.74
2019-02-06T00:25:53.206Z,1022.73
2019-02-06T00:26:53.220Z,1022.72
2019-02-06T00:27:53.233Z,1022.73
2019-02-06T00:28:53.247Z,1022.7
2019-02-06T00:29:53.262Z,1022.68
2019-02-06T00:30:53.277Z,1022.69
2019-02-06T00:31:53.290Z,1022.7
2019-02-06T00:32:53.304Z,1022.7
2019-02-06T00:33:53.318Z,1022.69
2019-02-06T00:34:53.332Z,1022.69
2019-02-06T00:35:53.347Z,1022.7
2019-02-06T00:37:53.377Z,1022.71
2019-02-06T00:38:53.390Z,1022.72
2019-02-06T00:39:53.403Z,1022.68
2019-02-06T00:40:53.418Z,1022.71
2019-02-06T00:41:53.432Z,1022.74
2019-02-06T00:42:53.446Z,1022.71
2019-02-06T00:43:53.470Z,1022.72
2019-02-06T00:44:53.474Z,1022.78
2019-02-06T00:45:53.487Z,1022.74
2019-02-06T00:46:53.501Z,1022.74
2019-02-06T00:47:53.519Z,1022.72
2019-02-06T00:48:53.530Z,1022.7
2019-02-06T00:49:53.544Z,1022.75
2019-02-06T00:50:53.558Z,1022.7
2019-02-06T00:51:53.572Z,1022.71
2019-02-06T00:52:53.587Z,1022.7
2019-02-06T00:53:53.600Z,1022.71
2019-02-06T00:54:53.614Z,1022.68
2019-02-06T00:55:53.629Z,1022.67
2019-02-06T00:56:53.642Z,1022.69
2019-02-06T00:57:53.657Z,1022.71
2019-02-06T00:58:53.671Z,1022.75
2019-02-06T00:59:53.685Z,1022.71
2019-02-06T01:00:53.698Z,1022.71
2019-02-06T01:01:53.713Z,1022.72
2019-02-06T01:02:53.730Z,1022.73
2019-02-06T01:03:53.741Z,1022.74
2019-02-06T01:04:53.756Z,1022.72
2019-02-06T01:05:53.769Z,1022.73
2019-02-06T01:06:53.784Z,1022.72
2019-02-06T01:07:53.797Z,1022.75
2019-02-06T01:09:53.825Z,1022.74
2019-02-06T01:10:53.840Z,1022.77
2019-02-06T01:11:53.853Z,1022.75
2019-02-06T01:12:53.867Z,1022.79
2019-02-06T01:13:53.881Z,1022.81
2019-02-06T01:14:53.896Z,1022.8
2019-02-06T01:15:53.909Z,1022.78
2019-02-06T01:16:53.923Z,1022.79
2019-02-06T01:17:53.937Z,1022.8
2019-02-06T01:18:53.951Z,1022.77
2019-02-06T01:19:53.966Z,1022.8
2019-02-06T01:20:53.979Z,1022.77
2019-02-06T01:21:53.994Z,1022.76
2019-02-06T01:22:54.007Z,1022.76
2019-02-06T01:23:54.022Z,1022.73
2019-02-06T01:25:54.050Z,1022.73
2019-02-06T01:26:54.063Z,1022.72
2019-02-06T01:27:54.078Z,1022.76
2019-02-06T01:28:54.095Z,1022.75
2019-02-06T01:29:54.107Z,1022.74
2019-02-06T01:30:54.120Z,1022.75
2019-02-06T01:31:54.137Z,1022.76
2019-02-06T01:32:54.148Z,1022.77
2019-02-06T01:33:54.164Z,1022.74
2019-02-06T01:34:54.176Z,1022.71
2019-02-06T01:35:54.190Z,1022.76
2019-02-06T01:36:54.207Z,1022.74
2019-02-06T01:37:54.218Z,1022.75
2019-02-06T01:38:54.232Z,1022.8
2019-02-06T01:39:54.247Z,1022.75
2019-02-06T01:41:54.275Z,1022.75
2019-02-06T01:42:54.290Z,1022.78
2019-02-06T01:43:54.321Z,1022.79
2019-02-06T01:44:54.316Z,1022.79
2019-02-06T01:45:54.330Z,1022.8
2019-02-06T01:46:54.345Z,1022.78
2019-02-06T01:47:54.359Z,1022.77
2019-02-06T01:48:54.372Z,1022.78
2019-02-06T01:49:54.386Z,1022.82
2019-02-06T01:50:54.401Z,1022.8
2019-02-06T01:51:54.414Z,1022.78
2019-02-06T01:52:54.428Z,1022.82
2019-02-06T01:53:54.443Z,1022.78
2019-02-06T01:54:54.456Z,1022.79
2019-02-06T01:55:54.471Z,1022.76
2019-02-06T01:57:54.498Z,1022.78
2019-02-06T01:58:54.514Z,1022.77
2019-02-06T01:59:54.526Z,1022.76
2019-02-06T02:00:54.540Z,1022.76
2019-02-06T02:01:54.555Z,1022.81
2019-02-06T02:02:54.568Z,1022.78
2019-02-06T02:03:54.591Z,1022.8
2019-02-06T02:04:54.698Z,1022.79
2019-02-06T02:06:01.619Z,1022.8
2019-02-06T02:06:54.624Z,1022.79
2019-02-06T02:07:54.639Z,1022.78
2019-02-06T02:08:54.653Z,1022.8
2019-02-06T02:09:54.667Z,1022.75
2019-02-06T02:10:54.682Z,1022.78
2019-02-06T02:12:54.711Z,1022.75
2019-02-06T02:13:54.724Z,1022.76
2019-02-06T02:14:54.738Z,1022.69
2019-02-06T02:15:54.752Z,1022.7
2019-02-06T02:16:54.767Z,1022.72
2019-02-06T02:17:54.780Z,1022.69
2019-02-06T02:18:54.894Z,1022.69
2019-02-06T02:19:54.808Z,1022.7
2019-02-06T02:20:54.822Z,1022.66
2019-02-06T02:21:54.836Z,1022.68
2019-02-06T02:22:54.850Z,1022.67
2019-02-06T02:23:54.865Z,1022.69
2019-02-06T02:24:54.878Z,1022.66
2019-02-06T02:25:54.893Z,1022.67
2019-02-06T02:26:54.907Z,1022.68
2019-02-06T02:27:54.921Z,1022.65
2019-02-06T02:28:54.934Z,1022.64
2019-02-06T02:29:54.948Z,1022.71
2019-02-06T02:30:54.963Z,1022.69
2019-02-06T02:31:54.975Z,1022.77
2019-02-06T02:32:54.989Z,1022.73
2019-02-06T02:33:55.004Z,1022.75
2019-02-06T02:34:55.018Z,1022.77
2019-02-06T02:35:55.031Z,1022.77
2019-02-06T02:36:55.047Z,1022.81
2019-02-06T02:37:55.061Z,1022.83
2019-02-06T02:38:55.076Z,1022.8
2019-02-06T02:39:55.088Z,1022.79
2019-02-06T02:40:55.102Z,1022.77
2019-02-06T02:41:55.116Z,1022.76
2019-02-06T02:42:55.130Z,1022.76
2019-02-06T02:44:55.158Z,1022.79
2019-02-06T02:45:55.173Z,1022.77
2019-02-06T02:46:55.186Z,1022.75
2019-02-06T02:47:55.210Z,1022.73
2019-02-06T02:48:55.217Z,1022.7
2019-02-06T02:49:55.230Z,1022.74
2019-02-06T02:50:55.242Z,1022.76
2019-02-06T02:51:55.258Z,1022.72
2019-02-06T02:52:55.381Z,1022.76
2019-02-06T02:53:55.285Z,1022.72
2019-02-06T02:54:55.298Z,1022.78
2019-02-06T02:55:55.315Z,1022.76
2019-02-06T02:56:55.328Z,1022.74
2019-02-06T02:57:55.340Z,1022.73
2019-02-06T02:58:55.354Z,1022.73
2019-02-06T03:00:55.382Z,1022.68
2019-02-06T03:01:55.396Z,1022.68
2019-02-06T03:02:55.410Z,1022.69
2019-02-06T03:03:55.426Z,1022.71
2019-02-06T03:04:55.438Z,1022.71
2019-02-06T03:05:55.452Z,1022.71
2019-02-06T03:06:55.469Z,1022.71
2019-02-06T03:07:55.486Z,1022.69
2019-02-06T03:08:55.494Z,1022.66
2019-02-06T03:09:55.510Z,1022.68
2019-02-06T03:10:55.522Z,1022.67
2019-02-06T03:11:55.613Z,1022.68
2019-02-06T03:12:55.551Z,1022.67
2019-02-06T03:13:55.564Z,1022.67
2019-02-06T03:14:55.579Z,1022.69
2019-02-06T03:16:55.608Z,1022.7
2019-02-06T03:17:55.624Z,1022.66
2019-02-06T03:18:55.634Z,1022.72
2019-02-06T03:19:55.647Z,1022.66
2019-02-06T03:20:55.663Z,1022.64
2019-02-06T03:21:55.676Z,1022.65
2019-02-06T03:22:55.695Z,1022.61
2019-02-06T03:23:55.705Z,1022.59
2019-02-06T03:24:55.718Z,1022.59
2019-02-06T03:25:55.732Z,1022.62
2019-02-06T03:26:55.745Z,1022.59
2019-02-06T03:27:55.760Z,1022.61
2019-02-06T03:28:55.774Z,1022.61
2019-02-06T03:29:55.788Z,1022.61
2019-02-06T03:30:55.802Z,1022.59
2019-02-06T03:32:55.831Z,1022.61
2019-02-06T03:33:55.850Z,1022.56
2019-02-06T03:34:55.857Z,1022.54
2019-02-06T03:35:55.872Z,1022.55
2019-02-06T03:36:55.887Z,1022.51
2019-02-06T03:37:55.899Z,1022.51
2019-02-06T03:38:55.913Z,1022.5
2019-02-06T03:39:55.928Z,1022.51
2019-02-06T03:40:55.942Z,1022.56
2019-02-06T03:41:55.955Z,1022.53
2019-02-06T03:42:55.970Z,1022.54
2019-02-06T03:43:55.986Z,1022.58
2019-02-06T03:44:55.997Z,1022.56
2019-02-06T03:45:56.011Z,1022.6
2019-02-06T03:47:56.040Z,1022.57
2019-02-06T03:48:56.053Z,1022.56
2019-02-06T03:49:56.067Z,1022.55
2019-02-06T03:50:56.082Z,1022.52
2019-02-06T03:51:56.100Z,1022.48
2019-02-06T03:52:56.110Z,1022.49
2019-02-06T03:53:56.123Z,1022.46
2019-02-06T03:54:56.140Z,1022.49
2019-02-06T03:55:56.150Z,1022.49
2019-02-06T03:56:56.166Z,1022.47
2019-02-06T03:57:56.179Z,1022.46
2019-02-06T03:58:56.193Z,1022.45
2019-02-06T03:59:56.208Z,1022.46
2019-02-06T04:00:56.221Z,1022.44
2019-02-06T04:01:56.237Z,1022.45
2019-02-06T04:02:56.252Z,1022.44
2019-02-06T04:03:56.337Z,1022.5
2019-02-06T04:04:56.279Z,1022.5
2019-02-06T04:05:56.291Z,1022.58
2019-02-06T04:07:00.824Z,1022.58
2019-02-06T04:07:56.319Z,1022.58
2019-02-06T04:08:56.335Z,1022.54
2019-02-06T04:09:56.347Z,1022.54
2019-02-06T04:10:56.538Z,1022.52
2019-02-06T04:11:56.376Z,1022.54
2019-02-06T04:12:56.390Z,1022.52
2019-02-06T04:13:56.405Z,1022.5
2019-02-06T04:14:56.417Z,1022.48
2019-02-06T04:15:56.431Z,1022.49
2019-02-06T04:16:56.446Z,1022.45
2019-02-06T04:17:56.459Z,1022.47
2019-02-06T04:19:56.487Z,1022.48
2019-02-06T04:20:56.502Z,1022.45
2019-02-06T04:21:56.516Z,1022.46
2019-02-06T04:22:56.535Z,1022.44
2019-02-06T04:23:56.543Z,1022.41
2019-02-06T04:24:56.559Z,1022.36
2019-02-06T04:25:56.572Z,1022.39
2019-02-06T04:26:56.586Z,1022.31
2019-02-06T04:27:56.613Z,1022.33
2019-02-06T04:28:56.613Z,1022.36
2019-02-06T04:29:56.629Z,1022.36
2019-02-06T04:30:56.642Z,1022.35
2019-02-06T04:31:56.659Z,1022.37
2019-02-06T04:32:56.670Z,1022.38
2019-02-06T04:33:56.683Z,1022.38
2019-02-06T04:35:56.714Z,1022.4
2019-02-06T04:37:06.061Z,1022.4
2019-02-06T04:37:56.740Z,1022.41
2019-02-06T04:38:56.754Z,1022.38
2019-02-06T04:39:56.767Z,1022.4
2019-02-06T04:40:56.782Z,1022.4
2019-02-06T04:41:56.797Z,1022.39
2019-02-06T04:42:56.810Z,1022.38
2019-02-06T04:43:56.827Z,1022.39
2019-02-06T04:44:56.838Z,1022.36
2019-02-06T04:45:56.878Z,1022.38
2019-02-06T04:46:56.867Z,1022.36
2019-02-06T04:47:56.879Z,1022.35
2019-02-06T04:48:56.896Z,1022.38
2019-02-06T04:49:56.909Z,1022.37
2019-02-06T04:51:56.935Z,1022.35
2019-02-06T04:52:56.949Z,1022.33
2019-02-06T04:53:56.964Z,1022.35
2019-02-06T04:54:56.977Z,1022.3
2019-02-06T04:55:56.990Z,1022.32
2019-02-06T04:56:57.026Z,1022.32
2019-02-06T04:57:57.019Z,1022.33
2019-02-06T04:58:57.031Z,1022.31
2019-02-06T04:59:57.046Z,1022.28
2019-02-06T05:00:57.060Z,1022.31
2019-02-06T05:01:57.073Z,1022.29
2019-02-06T05:02:57.087Z,1022.31
2019-02-06T05:03:57.101Z,1022.32
2019-02-06T05:04:57.115Z,1022.26
2019-02-06T05:05:57.131Z,1022.28
2019-02-06T05:07:57.156Z,1022.33
2019-02-06T05:08:57.171Z,1022.27
2019-02-06T05:09:57.182Z,1022.29
2019-02-06T05:10:57.196Z,1022.25
2019-02-06T05:11:57.210Z,1022.24
2019-02-06T05:12:57.222Z,1022.22
2019-02-06T05:13:57.237Z,1022.28
2019-02-06T05:14:57.252Z,1022.23
2019-02-06T05:15:57.265Z,1022.25
2019-02-06T05:16:57.277Z,1022.26
2019-02-06T05:17:57.291Z,1022.27
2019-02-06T05:18:57.305Z,1022.26
2019-02-06T05:19:57.320Z,1022.28
2019-02-06T05:20:57.333Z,1022.33
2019-02-06T05:22:57.360Z,1022.32
2019-02-06T05:23:57.372Z,1022.33
2019-02-06T05:24:57.386Z,1022.35
2019-02-06T05:25:57.402Z,1022.35
2019-02-06T05:26:57.413Z,1022.32
2019-02-06T05:27:57.428Z,1022.28
2019-02-06T05:28:57.441Z,1022.28
2019-02-06T05:29:57.469Z,1022.28
2019-02-06T05:30:57.465Z,1022.28
2019-02-06T05:31:57.480Z,1022.25
2019-02-06T05:32:57.508Z,1022.22
2019-02-06T05:33:57.527Z,1022.31
2019-02-06T05:34:57.519Z,1022.29
2019-02-06T05:35:57.533Z,1022.29
2019-02-06T05:36:57.546Z,1022.29
2019-02-06T05:37:57.560Z,1022.3
2019-02-06T05:38:57.576Z,1022.3
2019-02-06T05:39:57.587Z,1022.27
2019-02-06T05:40:57.602Z,1022.28
2019-02-06T05:41:57.611Z,1022.3
2019-02-06T05:42:57.629Z,1022.32
2019-02-06T05:43:57.643Z,1022.31
2019-02-06T05:44:57.652Z,1022.32
2019-02-06T05:45:57.664Z,1022.32
2019-02-06T05:46:57.678Z,1022.34
2019-02-06T05:47:57.692Z,1022.38
2019-02-06T05:48:57.705Z,1022.3
2019-02-06T05:49:57.719Z,1022.35
2019-02-06T05:50:57.731Z,1022.3
2019-02-06T05:51:57.744Z,1022.28
2019-02-06T05:52:57.758Z,1022.32
2019-02-06T05:54:57.783Z,1022.27
2019-02-06T05:55:57.796Z,1022.25
2019-02-06T05:56:57.808Z,1022.27
2019-02-06T05:57:57.824Z,1022.28
2019-02-06T05:58:57.855Z,1022.24
2019-02-06T05:59:57.851Z,1022.18
2019-02-06T06:00:57.864Z,1022.21
2019-02-06T06:01:57.874Z,1022.27
2019-02-06T06:02:57.887Z,1022.24
2019-02-06T06:03:57.903Z,1022.31
2019-02-06T06:04:58.005Z,1022.3
2019-02-06T06:05:57.927Z,1022.29
2019-02-06T06:06:57.940Z,1022.29
2019-02-06T06:07:57.955Z,1022.32
2019-02-06T06:08:57.964Z,1022.29
2019-02-06T06:10:57.999Z,1022.33
2019-02-06T06:11:58.003Z,1022.35
2019-02-06T06:12:58.016Z,1022.36
2019-02-06T06:13:58.030Z,1022.36
2019-02-06T06:14:58.042Z,1022.34
2019-02-06T06:15:58.057Z,1022.34
2019-02-06T06:16:58.068Z,1022.37
2019-02-06T06:17:58.081Z,1022.36
2019-02-06T06:18:58.094Z,1022.34
2019-02-06T06:19:58.106Z,1022.36
2019-02-06T06:20:58.119Z,1022.33
2019-02-06T06:21:58.135Z,1022.3
2019-02-06T06:22:58.146Z,1022.31
2019-02-06T06:23:58.164Z,1022.35
2019-02-06T06:24:58.171Z,1022.3
2019-02-06T06:26:58.196Z,1022.26
2019-02-06T06:27:58.210Z,1022.28
2019-02-06T06:28:58.223Z,1022.27
2019-02-06T06:29:58.235Z,1022.23
2019-02-06T06:30:58.249Z,1022.25
2019-02-06T06:31:58.261Z,1022.21
2019-02-06T06:32:58.291Z,1022.23
2019-02-06T06:33:58.286Z,1022.24
2019-02-06T06:34:58.300Z,1022.22
2019-02-06T06:35:58.312Z,1022.2
2019-02-06T06:36:58.328Z,1022.26
2019-02-06T06:37:59.968Z,1022.24
2019-02-06T06:38:58.353Z,1022.26
2019-02-06T06:39:58.364Z,1022.26
2019-02-06T06:40:58.376Z,1022.2
2019-02-06T06:42:58.403Z,1022.19
2019-02-06T06:43:58.415Z,1022.15
2019-02-06T06:44:58.428Z,1022.22
2019-02-06T06:45:58.440Z,1022.17
2019-02-06T06:46:58.453Z,1022.24
2019-02-06T06:47:58.466Z,1022.23
2019-02-06T06:48:58.481Z,1022.19
2019-02-06T06:49:58.491Z,1022.2
2019-02-06T06:50:58.505Z,1022.21
2019-02-06T06:51:58.516Z,1022.22
2019-02-06T06:52:58.533Z,1022.25
2019-02-06T06:53:58.551Z,1022.22
2019-02-06T06:54:58.561Z,1022.21
2019-02-06T06:55:58.569Z,1022.22
2019-02-06T06:57:58.594Z,1022.13
2019-02-06T06:58:58.608Z,1022.14
2019-02-06T06:59:58.619Z,1022.16
2019-02-06T07:00:58.632Z,1022.14
2019-02-06T07:01:58.648Z,1022.18
2019-02-06T07:02:58.657Z,1022.13
2019-02-06T07:03:58.671Z,1022.12
2019-02-06T07:04:58.683Z,1022.13
2019-02-06T07:05:58.706Z,1022.13
2019-02-06T07:06:58.709Z,1022.08
2019-02-06T07:08:09.024Z,1022.11
2019-02-06T07:08:58.734Z,1022.13
2019-02-06T07:09:58.747Z,1022.13
2019-02-06T07:10:58.759Z,1022.13
2019-02-06T07:11:58.772Z,1022.13
2019-02-06T07:12:58.785Z,1022.1
2019-02-06T07:13:58.799Z,1022.15
2019-02-06T07:14:58.811Z,1022.12
2019-02-06T07:16:00.392Z,1022.14
2019-02-06T07:16:58.835Z,1022.11
2019-02-06T07:17:58.848Z,1022.12
2019-02-06T07:18:58.862Z,1022.09
2019-02-06T07:19:58.875Z,1022.11
2019-02-06T07:21:01.389Z,1022.12
2019-02-06T07:21:58.900Z,1022.1
2019-02-06T07:22:58.921Z,1022.09
2019-02-06T07:23:58.929Z,1022.04
2019-02-06T07:24:58.939Z,1021.98
2019-02-06T07:25:58.952Z,1021.96
2019-02-06T07:26:58.965Z,1021.94
2019-02-06T07:27:58.980Z,1021.94
2019-02-06T07:29:59.005Z,1021.94
2019-02-06T07:30:59.018Z,1021.9
2019-02-06T07:31:59.031Z,1021.89
2019-02-06T07:32:59.044Z,1021.84
2019-02-06T07:33:59.058Z,1021.8
2019-02-06T07:34:59.072Z,1021.83
2019-02-06T07:35:59.084Z,1021.8
2019-02-06T07:36:59.098Z,1021.77
2019-02-06T07:37:59.111Z,1021.81
2019-02-06T07:38:59.124Z,1021.78
2019-02-06T07:39:59.139Z,1021.79
2019-02-06T07:40:59.152Z,1021.8
2019-02-06T07:41:59.167Z,1021.86
2019-02-06T07:42:59.179Z,1021.84
2019-02-06T07:43:59.193Z,1021.86
2019-02-06T07:45:59.221Z,1021.89
2019-02-06T07:46:59.237Z,1021.89
2019-02-06T07:47:59.248Z,1021.93
2019-02-06T07:48:59.263Z,1021.92
2019-02-06T07:49:59.276Z,1021.91
2019-02-06T07:50:59.289Z,1021.92
2019-02-06T07:51:59.304Z,1021.96
2019-02-06T07:52:59.320Z,1021.95
2019-02-06T07:53:59.331Z,1021.94
2019-02-06T07:54:59.345Z,1021.92
2019-02-06T07:55:59.360Z,1021.86
2019-02-06T07:56:59.373Z,1021.93
2019-02-06T07:57:59.484Z,1021.92
2019-02-06T07:58:59.401Z,1021.91
2019-02-06T07:59:59.442Z,1021.94
2019-02-06T08:01:59.449Z,1021.95
2019-02-06T08:02:59.457Z,1021.98
2019-02-06T08:03:59.473Z,1021.99
2019-02-06T08:04:59.585Z,1022.04
2019-02-06T08:05:59.499Z,1022.06
2019-02-06T08:06:59.513Z,1022.12
2019-02-06T08:07:59.530Z,1022.12
2019-02-06T08:08:59.541Z,1022.08
2019-02-06T08:09:59.556Z,1022.11
2019-02-06T08:10:59.571Z,1022.1
2019-02-06T08:11:59.584Z,1022.07
2019-02-06T08:12:59.599Z,1022.1
2019-02-06T08:13:59.615Z,1022.08
2019-02-06T08:14:59.629Z,1022.09
2019-02-06T08:15:59.643Z,1022.09
2019-02-06T08:17:59.675Z,1022.01
2019-02-06T08:18:59.690Z,1022
2019-02-06T08:19:59.705Z,1022.05
2019-02-06T08:20:59.718Z,1022.04
2019-02-06T08:21:59.746Z,1022.03
2019-02-06T08:22:59.748Z,1022.04
2019-02-06T08:23:59.763Z,1022.05
2019-02-06T08:24:59.778Z,1022.08
2019-02-06T08:25:59.795Z,1022.04
2019-02-06T08:26:59.808Z,1022.1
2019-02-06T08:27:59.823Z,1022.05
2019-02-06T08:28:59.838Z,1022.06
2019-02-06T08:29:59.854Z,1021.96
2019-02-06T08:30:59.869Z,1021.95
2019-02-06T08:32:59.905Z,1021.89
2019-02-06T08:33:59.914Z,1021.87
2019-02-06T08:34:59.933Z,1021.83
2019-02-06T08:35:59.958Z,1021.83
2019-02-06T08:36:59.962Z,1021.84
2019-02-06T08:37:59.974Z,1021.78
2019-02-06T08:38:59.992Z,1021.77
2019-02-06T08:40:00.006Z,1021.81
2019-02-06T08:41:00.029Z,1021.78
2019-02-06T08:42:00.128Z,1021.73
2019-02-06T08:43:00.051Z,1021.76
2019-02-06T08:44:01.785Z,1021.72
2019-02-06T08:45:00.084Z,1021.76
2019-02-06T08:46:00.099Z,1021.69
2019-02-06T08:47:00.113Z,1021.74
2019-02-06T08:48:00.133Z,1021.77
2019-02-06T08:49:00.143Z,1021.72
2019-02-06T08:50:00.311Z,1021.74
2019-02-06T08:51:00.255Z,1021.72
2019-02-06T08:52:00.188Z,1021.7
2019-02-06T08:53:00.203Z,1021.71
2019-02-06T08:54:00.222Z,1021.7
2019-02-06T08:55:00.315Z,1021.67
2019-02-06T08:56:00.250Z,1021.67
2019-02-06T08:57:00.265Z,1021.62
2019-02-06T08:58:00.281Z,1021.59
2019-02-06T08:59:00.297Z,1021.66
2019-02-06T09:00:00.326Z,1021.58
2019-02-06T09:01:00.327Z,1021.62
2019-02-06T09:02:00.343Z,1021.58
2019-02-06T09:03:00.358Z,1021.57
2019-02-06T09:05:00.389Z,1021.56
2019-02-06T09:06:00.405Z,1021.53
2019-02-06T09:07:00.420Z,1021.48
2019-02-06T09:08:00.435Z,1021.52
2019-02-06T09:09:00.452Z,1021.53
2019-02-06T09:10:00.467Z,1021.5
2019-02-06T09:11:00.482Z,1021.48
2019-02-06T09:12:00.498Z,1021.47
2019-02-06T09:13:00.520Z,1021.5
2019-02-06T09:14:00.540Z,1021.5
2019-02-06T09:15:00.545Z,1021.51
2019-02-06T09:16:00.560Z,1021.48
2019-02-06T09:17:00.577Z,1021.5
2019-02-06T09:18:00.591Z,1021.53
2019-02-06T09:19:00.635Z,1021.48
2019-02-06T09:21:00.639Z,1021.49
2019-02-06T09:22:00.655Z,1021.54
2019-02-06T09:23:00.674Z,1021.57
2019-02-06T09:24:00.686Z,1021.61
2019-02-06T09:25:00.701Z,1021.57
2019-02-06T09:26:00.717Z,1021.59
2019-02-06T09:27:00.734Z,1021.6
2019-02-06T09:28:00.750Z,1021.61
2019-02-06T09:29:00.766Z,1021.6
2019-02-06T09:30:00.781Z,1021.59
2019-02-06T09:31:00.796Z,1021.56
2019-02-06T09:32:00.812Z,1021.53
2019-02-06T09:33:00.829Z,1021.51
2019-02-06T09:34:00.898Z,1021.54
2019-02-06T09:35:00.882Z,1021.54
2019-02-06T09:37:00.892Z,1021.61
2019-02-06T09:38:00.911Z,1021.66
2019-02-06T09:39:11.081Z,1021.57
2019-02-06T09:40:00.940Z,1021.56
2019-02-06T09:41:00.956Z,1021.56
2019-02-06T09:42:00.972Z,1021.6
2019-02-06T09:43:00.992Z,1021.58
2019-02-06T09:44:01.005Z,1021.56
2019-02-06T09:45:01.021Z,1021.5
2019-02-06T09:46:01.037Z,1021.47
2019-02-06T09:47:01.055Z,1021.46
2019-02-06T09:48:01.072Z,1021.47
2019-02-06T09:49:01.085Z,1021.48
2019-02-06T09:50:01.103Z,1021.43
2019-02-06T09:51:01.117Z,1021.42
2019-02-06T09:53:01.150Z,1021.4
2019-02-06T09:54:01.173Z,1021.33
2019-02-06T09:55:01.200Z,1021.31
2019-02-06T09:56:01.199Z,1021.3
2019-02-06T09:57:01.219Z,1021.34
2019-02-06T09:58:01.231Z,1021.33
2019-02-06T09:59:01.252Z,1021.36
2019-02-06T10:00:01.266Z,1021.31
2019-02-06T10:01:01.282Z,1021.33
2019-02-06T10:02:01.298Z,1021.34
2019-02-06T10:03:01.314Z,1021.3
2019-02-06T10:04:01.331Z,1021.36
2019-02-06T10:05:01.351Z,1021.33
2019-02-06T10:06:01.367Z,1021.34
2019-02-06T10:08:01.399Z,1021.3
2019-02-06T10:09:01.414Z,1021.27
2019-02-06T10:10:01.432Z,1021.25
2019-02-06T10:11:01.448Z,1021.28
2019-02-06T10:12:01.465Z,1021.23
2019-02-06T10:13:01.485Z,1021.27
2019-02-06T10:14:01.503Z,1021.26
2019-02-06T10:15:01.518Z,1021.28
2019-02-06T10:16:01.530Z,1021.21
2019-02-06T10:17:01.562Z,1021.24
2019-02-06T10:18:01.564Z,1021.19
2019-02-06T10:19:01.580Z,1021.19
2019-02-06T10:20:01.596Z,1021.17
2019-02-06T10:21:01.613Z,1021.13
2019-02-06T10:22:01.630Z,1021.1
2019-02-06T10:23:01.647Z,1021.11
2019-02-06T10:24:01.662Z,1021.14
2019-02-06T10:25:01.679Z,1021.07
2019-02-06T10:26:01.696Z,1021.07
2019-02-06T10:27:01.711Z,1020.99
2019-02-06T10:28:01.730Z,1020.99
2019-02-06T10:29:01.745Z,1021
2019-02-06T10:30:03.827Z,1020.99
2019-02-06T10:31:01.778Z,1020.97
2019-02-06T10:32:01.794Z,1020.94
2019-02-06T10:33:01.812Z,1020.87
2019-02-06T10:34:01.828Z,1020.9
2019-02-06T10:35:01.844Z,1020.85
2019-02-06T10:36:01.865Z,1020.85
2019-02-06T10:37:01.878Z,1020.82
2019-02-06T10:38:01.894Z,1020.79
2019-02-06T10:40:01.928Z,1020.73
2019-02-06T10:41:04.548Z,1020.73
2019-02-06T10:42:01.959Z,1020.64
2019-02-06T10:43:01.976Z,1020.62
2019-02-06T10:44:01.995Z,1020.63
2019-02-06T10:45:02.009Z,1020.66
2019-02-06T10:46:02.025Z,1020.62
2019-02-06T10:47:02.042Z,1020.61
2019-02-06T10:48:02.058Z,1020.66
2019-02-06T10:49:02.073Z,1020.58
2019-02-06T10:50:02.090Z,1020.56
2019-02-06T10:51:02.107Z,1020.56
2019-02-06T10:52:02.124Z,1020.55
2019-02-06T10:53:02.139Z,1020.54
2019-02-06T10:54:02.156Z,1020.46
2019-02-06T10:56:02.190Z,1020.45
2019-02-06T10:57:02.210Z,1020.47
2019-02-06T10:58:02.222Z,1020.4
2019-02-06T10:59:02.240Z,1020.39
2019-02-06T11:00:02.254Z,1020.36
2019-02-06T11:01:02.270Z,1020.39
2019-02-06T11:02:02.287Z,1020.42
2019-02-06T11:03:02.304Z,1020.4
2019-02-06T11:04:02.319Z,1020.36
2019-02-06T11:05:02.336Z,1020.35
2019-02-06T11:06:02.402Z,1020.28
2019-02-06T11:07:02.369Z,1020.28
2019-02-06T11:08:02.384Z,1020.27
2019-02-06T11:09:02.401Z,1020.33
2019-02-06T11:10:02.417Z,1020.23
2019-02-06T11:12:02.449Z,1020.25
2019-02-06T11:13:02.466Z,1020.22
2019-02-06T11:14:02.483Z,1020.24
2019-02-06T11:15:02.498Z,1020.19
2019-02-06T11:16:02.517Z,1020.15
2019-02-06T11:17:02.531Z,1020.22
2019-02-06T11:18:02.548Z,1020.23
2019-02-06T11:19:02.563Z,1020.21
2019-02-06T11:20:02.580Z,1020.24
2019-02-06T11:21:02.596Z,1020.15
2019-02-06T11:22:02.615Z,1020.17
2019-02-06T11:23:02.628Z,1020.13
2019-02-06T11:24:02.645Z,1020.13
2019-02-06T11:25:04.620Z,1020.14
2019-02-06T11:26:02.677Z,1020.11
2019-02-06T11:28:02.710Z,1020.02
2019-02-06T11:29:02.726Z,1020.06
2019-02-06T11:30:02.742Z,1020.12
2019-02-06T11:31:02.758Z,1020.1
2019-02-06T11:32:02.775Z,1020.15
2019-02-06T11:33:02.791Z,1020.11
2019-02-06T11:34:02.808Z,1020.05
2019-02-06T11:35:02.855Z,1020.09
2019-02-06T11:36:02.943Z,1020.06
2019-02-06T11:37:02.857Z,1020.06
2019-02-06T11:38:02.890Z,1020.03
2019-02-06T11:39:02.892Z,1020.04
2019-02-06T11:40:02.908Z,1020
2019-02-06T11:41:02.925Z,1020
2019-02-06T11:43:02.961Z,1019.92
2019-02-06T11:44:02.975Z,1019.91
2019-02-06T11:45:02.992Z,1019.89
2019-02-06T11:46:03.008Z,1019.85
2019-02-06T11:47:03.025Z,1019.83
2019-02-06T11:48:03.041Z,1019.79
2019-02-06T11:49:03.060Z,1019.77
2019-02-06T11:50:03.081Z,1019.77
2019-02-06T11:51:03.090Z,1019.79
2019-02-06T11:52:03.107Z,1019.76
2019-02-06T11:53:03.140Z,1019.74
2019-02-06T11:54:03.142Z,1019.81
2019-02-06T11:55:03.158Z,1019.77
2019-02-06T11:56:03.176Z,1019.78
2019-02-06T11:57:03.192Z,1019.75
2019-02-06T11:58:03.208Z,1019.7
2019-02-06T11:59:03.225Z,1019.66
2019-02-06T12:00:03.242Z,1019.61
2019-02-06T12:01:03.259Z,1019.61
2019-02-06T12:02:03.282Z,1019.59
2019-02-06T12:03:03.292Z,1019.55
2019-02-06T12:04:03.310Z,1019.59
2019-02-06T12:05:03.329Z,1019.54
2019-02-06T12:06:03.343Z,1019.46
2019-02-06T12:07:03.361Z,1019.48
2019-02-06T12:08:03.378Z,1019.45
2019-02-06T12:09:03.395Z,1019.43
2019-02-06T12:10:09.556Z,1019.45
2019-02-06T12:11:03.428Z,1019.4
2019-02-06T12:12:03.446Z,1019.34
2019-02-06T12:13:03.465Z,1019.31
2019-02-06T12:15:03.497Z,1019.35
2019-02-06T12:16:03.515Z,1019.27
2019-02-06T12:17:03.530Z,1019.25
2019-02-06T12:18:03.547Z,1019.17
2019-02-06T12:19:03.564Z,1019.14
2019-02-06T12:20:03.582Z,1019.16
2019-02-06T12:21:03.597Z,1019.17
2019-02-06T12:22:03.615Z,1019.16
2019-02-06T12:23:03.632Z,1019.15
2019-02-06T12:24:03.648Z,1019.21
2019-02-06T12:25:03.665Z,1019.17
2019-02-06T12:26:03.682Z,1019.09
2019-02-06T12:27:03.700Z,1019.14
2019-02-06T12:28:05.115Z,1019.15
2019-02-06T12:29:03.732Z,1019.17
2019-02-06T12:31:03.768Z,1019.14
2019-02-06T12:32:03.782Z,1019.09
2019-02-06T12:33:03.805Z,1019.07
2019-02-06T12:34:03.816Z,1019.14
2019-02-06T12:35:03.832Z,1019.06
2019-02-06T12:36:03.853Z,1019.03
2019-02-06T12:37:03.871Z,1019.06
2019-02-06T12:38:03.884Z,1019.02
2019-02-06T12:39:03.899Z,1018.98
2019-02-06T12:40:03.916Z,1018.93
2019-02-06T12:41:03.933Z,1018.9
2019-02-06T12:42:03.950Z,1018.9
2019-02-06T12:43:03.966Z,1018.9
2019-02-06T12:44:03.983Z,1018.87
2019-02-06T12:45:04.000Z,1018.79
2019-02-06T12:47:04.032Z,1018.7
2019-02-06T12:48:04.050Z,1018.76
2019-02-06T12:49:04.067Z,1018.76
2019-02-06T12:50:04.082Z,1018.74